Orbital elements of FENGYUN 1C DEB
| Launched | 9 May 1999 |
| Flight ended | – |
| Launch site | Taiyuan Space Center, PRC |
| Owner | People's Republic of China |
| NORAD ID | 31462 |
| Date fetched |
Epoch osculation |
Inc. [°] |
Ecc. | RA asc node [hr] |
Arg Peri. [°] |
Mean anom [°] |
Mean motion [rev/day] |
Abs. mag |
| Date fetched |
Epoch osculation |
Inc. [°] |
Ecc. | RA asc node [hr] |
Arg Peri. [°] |
Mean anom [°] |
Mean motion [rev/day] |
Abs. mag |
| 2026 May 08 17:57 | 2026 May 05 12:17:39 | 98.6791 | 0.00330 | 9.6449 | 154.0345 | 0.4768 | 14.13197 | – |
| 2026 May 07 17:58 | 2026 May 05 12:17:39 | 98.6791 | 0.00330 | 9.6449 | 154.0345 | 0.4768 | 14.13197 | – |
| 2026 May 06 17:57 | 2026 May 05 12:17:39 | 98.6791 | 0.00330 | 9.6449 | 154.0345 | 0.4768 | 14.13197 | – |
| 2026 May 05 17:57 | 2026 May 05 12:17:39 | 98.6791 | 0.00330 | 9.6449 | 154.0345 | 0.4768 | 14.13197 | – |
| 2026 May 04 17:57 | 2026 Apr 27 23:35:05 | 98.6795 | 0.00325 | 9.1579 | 175.2436 | 0.4768 | 14.13197 | – |
| 2026 May 03 17:57 | 2026 Apr 27 23:35:05 | 98.6795 | 0.00325 | 9.1579 | 175.2436 | 0.4768 | 14.13197 | – |
| 2026 May 02 17:57 | 2026 Apr 27 23:35:05 | 98.6795 | 0.00325 | 9.1579 | 175.2436 | 0.4768 | 14.13197 | – |
| 2026 May 01 17:56 | 2026 Apr 27 23:35:05 | 98.6795 | 0.00325 | 9.1579 | 175.2436 | 0.4768 | 14.13197 | – |
| 2026 Apr 30 17:56 | 2026 Apr 27 23:35:05 | 98.6795 | 0.00325 | 9.1579 | 175.2436 | 0.4768 | 14.13197 | – |
| 2026 Apr 29 17:57 | 2026 Apr 24 00:25:48 | 98.6802 | 0.00323 | 8.9014 | 186.5697 | 0.4768 | 14.13197 | – |
| 2026 Apr 28 17:56 | 2026 Apr 24 00:25:48 | 98.6802 | 0.00323 | 8.9014 | 186.5697 | 0.4768 | 14.13197 | – |
| 2026 Apr 27 17:58 | 2026 Apr 24 00:25:48 | 98.6802 | 0.00323 | 8.9014 | 186.5697 | 0.4768 | 14.13197 | – |
| 2026 Apr 26 17:58 | 2026 Apr 24 00:25:48 | 98.6802 | 0.00323 | 8.9014 | 186.5697 | 0.4768 | 14.13197 | – |
| 2026 Apr 25 17:58 | 2026 Apr 24 00:25:48 | 98.6802 | 0.00323 | 8.9014 | 186.5697 | 0.4768 | 14.13197 | – |
| 2026 Apr 24 17:59 | 2026 Apr 24 00:25:48 | 98.6802 | 0.00323 | 8.9014 | 186.5697 | 0.4768 | 14.13197 | – |
| 2026 Apr 23 17:57 | 2026 Apr 17 12:40:44 | 98.6812 | 0.00320 | 8.4817 | 205.1829 | 0.4768 | 14.13197 | – |
| 2026 Apr 22 17:57 | 2026 Apr 17 12:40:44 | 98.6812 | 0.00320 | 8.4817 | 205.1829 | 0.4768 | 14.13197 | – |
| 2026 Apr 21 17:57 | 2026 Apr 17 12:40:44 | 98.6812 | 0.00320 | 8.4817 | 205.1829 | 0.4768 | 14.13197 | – |
| 2026 Apr 20 17:57 | 2026 Apr 17 12:40:44 | 98.6812 | 0.00320 | 8.4817 | 205.1829 | 0.4768 | 14.13197 | – |
| 2026 Apr 19 17:58 | 2026 Apr 17 12:40:44 | 98.6812 | 0.00320 | 8.4817 | 205.1829 | 0.4768 | 14.13197 | – |
| 2026 Apr 18 17:56 | 2026 Apr 11 19:09:25 | 98.6823 | 0.00316 | 8.1110 | 221.8795 | 0.4768 | 14.13197 | – |
| 2026 Apr 16 17:57 | 2026 Apr 11 19:09:25 | 98.6823 | 0.00316 | 8.1110 | 221.8795 | 0.4768 | 14.13197 | – |
| 2026 Apr 14 17:57 | 2026 Apr 11 19:09:25 | 98.6823 | 0.00316 | 8.1110 | 221.8795 | 0.4768 | 14.13197 | – |
| 2026 Apr 13 17:57 | 2026 Apr 11 19:09:25 | 98.6823 | 0.00316 | 8.1110 | 221.8795 | 0.4768 | 14.13197 | – |
| 2026 Apr 12 17:57 | 2026 Apr 08 00:23:27 | 98.6758 | 0.00314 | 7.8651 | 233.0555 | 0.4768 | 14.13197 | – |
| 2026 Apr 11 17:57 | 2026 Apr 08 00:23:27 | 98.6758 | 0.00314 | 7.8651 | 233.0555 | 0.4768 | 14.13197 | – |